Time;durP1;ratioP1;P1;durP2;ratioP2;P2;SDS_P1;SDS_P2;PMS_P1;PMS_P2;Temp;Humidity;BMP_temperature;BMP_pressure;BME280_temperature;BME280_humidity;BME280_pressure;Samples;Min_cycle;Max_cycle;Signal;HPM_P1;HPM_P2
2021/08/14 00:02:04;;;;;;;18.55;12.65;;;;;;;20.46;65.46;100568.73;2142068;83;27668;-63
2021/08/14 00:05:06;;;;;;;22.13;13.60;;;;;;;20.46;65.66;100569.62;2111333;83;29822;-62
2021/08/14 00:08:08;;;;;;;17.00;12.63;;;;;;;20.46;65.59;100565.53;2096600;84;32348;-62
2021/08/14 00:11:12;;;;;;;17.60;13.05;;;;;;;20.43;65.53;100556.27;2096427;84;34089;-62
2021/08/14 00:14:14;;;;;;;23.60;13.93;;;;;;;20.44;65.56;100561.20;2096730;84;29341;-62
2021/08/14 00:17:16;;;;;;;25.70;13.70;;;;;;;20.45;65.66;100560.20;2096336;84;27636;-62
2021/08/14 00:20:18;;;;;;;22.17;13.48;;;;;;;20.44;65.67;100559.36;2096579;84;28898;-62
2021/08/14 00:23:20;;;;;;;17.27;13.43;;;;;;;20.44;65.62;100563.44;2096869;84;31712;-62
2021/08/14 00:26:22;;;;;;;17.30;12.85;;;;;;;20.44;65.65;100558.48;2096171;84;33855;-62
2021/08/14 00:29:24;;;;;;;21.05;13.25;;;;;;;20.44;65.63;100559.84;2096461;84;29335;-62
2021/08/14 00:32:26;;;;;;;37.40;13.70;;;;;;;20.44;65.75;100559.84;2140500;83;27747;-63
2021/08/14 00:35:29;;;;;;;20.50;13.10;;;;;;;20.43;65.78;100564.44;2141611;82;30732;-62
2021/08/14 00:38:31;;;;;;;23.55;13.78;;;;;;;20.42;65.91;100566.79;2141978;83;32260;-62
2021/08/14 00:41:34;;;;;;;19.48;12.98;;;;;;;20.42;65.90;100564.58;2141645;83;34270;-62
2021/08/14 00:44:36;;;;;;;20.88;13.60;;;;;;;20.41;65.77;100565.58;2142002;83;30154;-62
2021/08/14 00:47:42;;;;;;;20.72;13.98;;;;;;;20.39;65.88;100568.92;2142087;83;27729;-62
2021/08/14 00:50:44;;;;;;;25.62;14.60;;;;;;;20.36;65.81;100573.27;2142368;83;29023;-62
2021/08/14 00:53:48;;;;;;;18.82;12.85;;;;;;;20.33;65.81;100573.05;2141644;83;32214;-62
2021/08/14 00:56:55;;;;;;;18.05;13.48;;;;;;;20.27;65.74;100575.78;2098058;83;28328;-62
2021/08/14 01:00:00;;;;;;;18.45;13.60;;;;;;;20.23;65.86;100575.70;2067827;85;29687;-62
2021/08/14 01:03:03;;;;;;;17.12;12.63;;;;;;;20.19;65.89;100581.03;2057971;84;27678;-62
2021/08/14 01:06:05;;;;;;;21.57;13.22;;;;;;;20.14;66.06;100576.47;2057588;85;29519;-62
2021/08/14 01:09:11;;;;;;;17.02;12.85;;;;;;;20.08;65.92;100579.73;2057635;86;32170;-61
2021/08/14 01:12:20;;;;;;;18.73;14.15;;;;;;;20.02;65.94;100587.42;2057996;85;29795;-62
2021/08/14 01:15:22;;;;;;;19.20;13.45;;;;;;;19.96;65.95;100585.72;2057842;85;30321;-62
2021/08/14 01:18:24;;;;;;;15.90;13.78;;;;;;;19.88;66.01;100574.98;2057841;85;27737;-63
2021/08/14 01:21:31;;;;;;;20.05;14.15;;;;;;;19.82;66.19;100574.13;2057622;85;28688;-62
2021/08/14 01:24:36;;;;;;;22.65;14.10;;;;;;;19.76;66.17;100563.77;2057805;84;33711;-61
2021/08/14 01:27:40;;;;;;;;;;;;;;;19.70;66.30;100568.34;2060223;86;33449;-61
2021/08/14 01:30:43;;;;;;;20.95;13.65;;;;;;;19.66;66.49;100568.27;2087926;85;30576;-60
2021/08/14 01:33:45;;;;;;;23.27;14.50;;;;;;;19.58;66.47;100567.55;2092258;84;27713;-62
2021/08/14 01:36:52;;;;;;;18.90;13.98;;;;;;;19.53;66.72;100569.27;2091779;85;29913;-64
2021/08/14 01:39:54;;;;;;;23.22;15.38;;;;;;;19.49;66.77;100565.58;2091861;85;31844;-62
2021/08/14 01:42:56;;;;;;;20.68;14.55;;;;;;;19.45;67.02;100564.98;2091975;85;33400;-61
2021/08/14 01:45:58;;;;;;;28.00;14.43;;;;;;;19.41;66.94;100558.95;2092064;85;29481;-62
2021/08/14 01:49:00;;;;;;;17.02;14.15;;;;;;;19.37;67.02;100562.90;2092478;85;27596;-62
2021/08/14 01:52:11;;;;;;;18.57;14.20;;;;;;;19.33;66.99;100566.00;2092392;85;29651;-62
2021/08/14 01:55:13;;;;;;;22.15;14.68;;;;;;;19.28;67.18;100560.45;2092573;84;31247;-62
2021/08/14 01:58:14;;;;;;;21.68;15.72;;;;;;;19.24;67.24;100562.19;2113021;83;33313;-62
2021/08/14 02:01:17;;;;;;;17.92;14.58;;;;;;;19.18;67.45;100560.84;2096305;84;30219;-62
2021/08/14 02:04:18;;;;;;;22.67;14.75;;;;;;;19.14;67.45;100562.08;2096669;83;27611;-62
2021/08/14 02:07:20;;;;;;;22.15;14.45;;;;;;;19.10;67.58;100560.12;2096588;84;29901;-61
2021/08/14 02:10:22;;;;;;;21.07;14.25;;;;;;;19.06;67.57;100563.19;2096403;84;32261;-61
2021/08/14 02:13:24;;;;;;;23.73;15.13;;;;;;;19.03;67.84;100567.02;2096756;84;33012;-61
2021/08/14 02:16:28;;;;;;;24.77;15.65;;;;;;;19.01;67.98;100577.66;2096261;84;30633;-61
2021/08/14 02:19:30;;;;;;;20.05;14.75;;;;;;;19.00;68.54;100565.91;2096662;84;27667;-62
2021/08/14 02:22:32;;;;;;;24.25;15.60;;;;;;;19.00;68.46;100573.20;2096700;84;29858;-62
2021/08/14 02:25:34;;;;;;;21.70;15.83;;;;;;;19.01;68.66;100568.14;2096264;84;32286;-62
2021/08/14 02:28:37;;;;;;;24.43;16.35;;;;;;;19.01;68.66;100559.49;2098793;83;33813;-62
2021/08/14 02:31:38;;;;;;;18.65;14.53;;;;;;;19.03;68.66;100559.39;2096851;84;29848;-62
2021/08/14 02:34:40;;;;;;;23.05;15.30;;;;;;;19.05;68.68;100556.02;2096468;84;27690;-62
2021/08/14 02:37:42;;;;;;;23.92;14.93;;;;;;;19.07;68.77;100563.08;2096731;84;29846;-61
2021/08/14 02:40:47;;;;;;;24.87;15.18;;;;;;;19.10;68.82;100566.91;2096411;84;31434;-61
2021/08/14 02:43:50;;;;;;;23.67;15.68;;;;;;;19.12;68.94;100558.63;2096549;84;34079;-60
2021/08/14 02:46:52;;;;;;;18.75;14.43;;;;;;;19.15;69.09;100550.70;2096596;84;29328;-61
2021/08/14 02:49:54;;;;;;;18.37;14.75;;;;;;;19.17;69.14;100540.11;2096553;84;27660;-60
2021/08/14 02:52:57;;;;;;;20.90;14.90;;;;;;;19.21;69.20;100543.42;2096227;84;30791;-61
2021/08/14 02:55:59;;;;;;;22.70;15.00;;;;;;;19.23;69.31;100550.45;2096659;84;31070;-61
2021/08/14 02:59:01;;;;;;;21.68;14.75;;;;;;;19.23;69.23;100543.66;2092967;83;33081;-60
2021/08/14 03:02:04;;;;;;;22.50;14.50;;;;;;;19.25;69.16;100546.27;2141648;82;30220;-61
2021/08/14 03:05:08;;;;;;;21.35;14.55;;;;;;;19.25;69.19;100542.19;2141666;83;27630;-61
2021/08/14 03:08:13;;;;;;;25.13;15.70;;;;;;;19.24;69.15;100535.03;2142173;81;29490;-60
2021/08/14 03:11:16;;;;;;;18.02;14.38;;;;;;;19.23;69.19;100526.00;2141965;83;31643;-61
2021/08/14 03:14:17;;;;;;;24.60;14.15;;;;;;;19.23;69.24;100529.22;2141772;83;33396;-60
2021/08/14 03:17:20;;;;;;;20.00;13.90;;;;;;;19.23;69.37;100536.02;2141596;83;30789;-60
2021/08/14 03:20:22;;;;;;;28.32;15.50;;;;;;;19.22;69.42;100535.13;2141631;83;27692;-60
2021/08/14 03:23:24;;;;;;;25.52;16.15;;;;;;;19.22;69.45;100538.36;2141924;83;29806;-61
2021/08/14 03:26:27;;;;;;;18.75;14.35;;;;;;;19.22;69.49;100543.80;2141888;83;31030;-60
2021/08/14 03:29:29;;;;;;;18.45;13.58;;;;;;;19.20;69.63;100540.34;2115147;83;34016;-61
2021/08/14 03:32:33;;;;;;;21.70;14.87;;;;;;;19.20;69.59;100543.05;2096622;83;29944;-61
2021/08/14 03:35:35;;;;;;;22.52;15.65;;;;;;;19.19;69.61;100558.50;2096716;83;27707;-61
2021/08/14 03:38:38;;;;;;;18.40;14.28;;;;;;;19.17;69.56;100563.19;2096203;83;28792;-60
2021/08/14 03:41:40;;;;;;;27.42;15.45;;;;;;;19.18;69.74;100575.78;2096183;84;32276;-61
2021/08/14 03:44:43;;;;;;;20.80;14.98;;;;;;;19.18;69.82;100572.19;2096145;84;33120;-61
2021/08/14 03:47:45;;;;;;;21.75;15.35;;;;;;;19.17;69.84;100569.98;2096580;84;30119;-62
2021/08/14 03:50:47;;;;;;;22.55;14.47;;;;;;;19.18;69.85;100573.55;2096340;84;27667;-61
2021/08/14 03:53:49;;;;;;;20.65;14.80;;;;;;;19.18;69.92;100578.50;2096088;84;30797;-62
2021/08/14 03:56:53;;;;;;;22.58;15.45;;;;;;;19.17;70.02;100572.70;2096567;83;31030;-62
2021/08/14 03:59:55;;;;;;;20.00;15.73;;;;;;;19.19;70.10;100577.98;2134972;82;33610;-62
2021/08/14 04:02:58;;;;;;;21.23;16.62;;;;;;;19.21;70.21;100573.30;2147417;82;30169;-62
2021/08/14 04:06:01;;;;;;;22.27;16.77;;;;;;;19.24;70.22;100572.55;2148347;82;28190;-63
2021/08/14 04:09:03;;;;;;;21.48;15.40;;;;;;;19.25;70.26;100559.34;2129383;82;29974;-62
2021/08/14 04:12:07;;;;;;;22.73;15.35;;;;;;;19.28;70.33;100558.20;2105716;82;31850;-62
2021/08/14 04:15:11;;;;;;;21.90;16.32;;;;;;;19.31;70.43;100563.39;2105863;83;32973;-61
2021/08/14 04:18:13;;;;;;;20.10;15.25;;;;;;;19.35;70.53;100574.38;2105583;84;30044;-61
2021/08/14 04:21:16;;;;;;;27.17;17.62;;;;;;;19.38;70.57;100574.14;2105885;84;27636;-62
2021/08/14 04:24:18;;;;;;;23.92;16.10;;;;;;;19.42;70.62;100584.25;2105475;84;29366;-61
2021/08/14 04:27:20;;;;;;;22.50;15.72;;;;;;;19.47;70.70;100582.02;2105637;83;31079;-61
2021/08/14 04:30:25;;;;;;;24.10;17.12;;;;;;;19.51;70.73;100584.86;2105443;84;35044;-62
2021/08/14 04:33:27;;;;;;;21.87;16.37;;;;;;;19.58;70.69;100585.21;2105932;84;29320;-62
2021/08/14 04:36:29;;;;;;;20.02;16.67;;;;;;;19.64;70.70;100587.39;2105559;84;27695;-62
2021/08/14 04:39:32;;;;;;;20.05;15.83;;;;;;;19.69;70.71;100582.45;2134181;82;29298;-62
2021/08/14 04:42:35;;;;;;;20.45;15.72;;;;;;;19.73;70.69;100582.56;2105425;84;32003;-62
2021/08/14 04:45:38;;;;;;;22.17;15.45;;;;;;;19.81;70.70;100586.48;2105519;84;33728;-62
2021/08/14 04:48:40;;;;;;;19.52;15.93;;;;;;;19.90;70.66;100589.83;2105582;84;30035;-62
2021/08/14 04:51:43;;;;;;;19.65;15.50;;;;;;;20.06;70.75;100592.61;2105892;83;27694;-62
2021/08/14 04:54:46;;;;;;;18.85;15.43;;;;;;;20.21;70.70;100589.05;2105556;83;29992;-62
2021/08/14 04:57:47;;;;;;;19.90;15.13;;;;;;;20.41;70.69;100592.79;2105820;84;31687;-61
2021/08/14 05:00:51;;;;;;;18.85;14.60;;;;;;;20.64;70.56;100599.80;2108546;84;33998;-60
2021/08/14 05:03:53;;;;;;;23.83;14.30;;;;;;;21.00;70.48;100605.38;2108240;84;30606;-60
2021/08/14 05:06:56;;;;;;;21.20;14.83;;;;;;;21.30;69.97;100610.43;2108994;84;27798;-61
2021/08/14 05:09:58;;;;;;;17.25;13.88;;;;;;;21.51;69.55;100617.19;2115155;82;28663;-61
2021/08/14 05:13:01;;;;;;;18.50;13.05;;;;;;;21.80;69.18;100621.86;2151224;82;32249;-61
2021/08/14 05:16:04;;;;;;;17.02;13.18;;;;;;;22.12;68.60;100626.18;2151167;82;34201;-61
2021/08/14 05:19:07;;;;;;;20.72;13.35;;;;;;;22.34;68.05;100628.27;2151630;82;29407;-61
2021/08/14 05:22:09;;;;;;;18.27;13.22;;;;;;;22.47;67.51;100624.75;2122337;82;27776;-61
2021/08/14 05:25:12;;;;;;;17.25;13.95;;;;;;;22.55;66.92;100621.29;2151299;82;28702;-61
2021/08/14 05:28:15;;;;;;;18.12;13.95;;;;;;;22.56;66.58;100629.33;2151718;82;31426;-61
2021/08/14 05:31:18;;;;;;;23.10;14.10;;;;;;;22.57;66.26;100628.31;2151707;82;33010;-61
2021/08/14 05:34:21;;;;;;;25.68;13.38;;;;;;;22.58;66.18;100636.02;2151839;82;28778;-61
2021/08/14 05:37:24;;;;;;;17.25;13.18;;;;;;;22.60;65.82;100644.41;2149356;82;27686;-60
2021/08/14 05:40:27;;;;;;;20.72;13.50;;;;;;;22.65;65.62;100643.13;2108369;83;28678;-60
2021/08/14 05:43:30;;;;;;;16.80;12.90;;;;;;;22.70;65.46;100647.61;2108480;83;31107;-60
2021/08/14 05:46:32;;;;;;;16.30;12.35;;;;;;;22.79;65.27;100656.31;2108475;84;33752;-61
2021/08/14 05:49:35;;;;;;;15.48;12.90;;;;;;;23.08;65.08;100654.51;2108402;84;30558;-60
2021/08/14 05:52:38;;;;;;;18.98;13.93;;;;;;;23.39;64.60;100646.91;2108997;84;27685;-61
2021/08/14 05:55:41;;;;;;;19.32;13.20;;;;;;;23.69;64.16;100664.53;2108336;84;28673;-61
2021/08/14 05:58:44;;;;;;;18.35;13.68;;;;;;;23.94;63.68;100668.41;2107703;83;32306;-61
2021/08/14 06:01:46;;;;;;;15.00;13.28;;;;;;;24.24;63.07;100663.59;2105607;84;34234;-62
2021/08/14 06:04:49;;;;;;;15.28;12.80;;;;;;;24.51;62.28;100668.61;2105850;84;29722;-62
2021/08/14 06:07:52;;;;;;;16.42;13.58;;;;;;;24.87;62.11;100672.19;2114532;82;27704;-62
2021/08/14 06:10:55;;;;;;;17.25;13.90;;;;;;;25.14;61.14;100668.91;2148049;82;29679;-64
2021/08/14 06:13:57;;;;;;;19.45;13.75;;;;;;;25.37;60.55;100664.23;2148195;82;31392;-64
2021/08/14 06:17:02;;;;;;;16.77;14.63;;;;;;;25.70;59.93;100671.25;2148178;82;32998;-63
2021/08/14 06:20:07;;;;;;;17.87;13.95;;;;;;;26.09;58.51;100667.90;2143320;82;29380;-68
2021/08/14 06:23:10;;;;;;;15.25;12.78;;;;;;;26.42;58.80;100668.48;2105655;84;27730;-63
2021/08/14 06:26:12;;;;;;;15.00;13.15;;;;;;;26.80;57.86;100675.72;2106093;84;28697;-63
2021/08/14 06:29:15;;;;;;;18.70;13.62;;;;;;;27.26;57.61;100675.08;2105922;84;31125;-64
2021/08/14 06:32:17;;;;;;;17.67;13.18;;;;;;;27.79;56.80;100667.66;2105715;83;33168;-63
2021/08/14 06:35:20;;;;;;;17.02;13.72;;;;;;;28.30;55.81;100672.68;2105470;83;29551;-63
2021/08/14 06:38:22;;;;;;;18.50;13.62;;;;;;;28.81;55.03;100676.75;2105925;84;27885;-64
2021/08/14 06:41:24;;;;;;;20.20;13.60;;;;;;;29.28;53.72;100687.13;2105437;84;29942;-65
2021/08/14 06:44:26;;;;;;;14.60;13.10;;;;;;;29.52;51.94;100684.63;2105739;83;31076;-64
2021/08/14 06:47:28;;;;;;;15.28;13.62;;;;;;;29.81;51.30;100688.37;2105831;84;32970;-66
2021/08/14 06:50:30;;;;;;;19.48;13.32;;;;;;;30.12;50.88;100681.74;2107934;82;29388;-66
2021/08/14 06:53:31;;;;;;;17.87;13.58;;;;;;;30.41;50.43;100692.37;2106065;84;28250;-66
2021/08/14 06:56:34;;;;;;;14.00;12.63;;;;;;;30.72;49.76;100693.08;2105984;83;28631;-66
2021/08/14 06:59:35;;;;;;;14.65;13.13;;;;;;;31.01;48.90;100692.58;2106545;84;31023;-66
2021/08/14 07:02:37;;;;;;;16.20;13.20;;;;;;;31.26;48.00;100690.73;2107451;84;33190;-66
2021/08/14 07:05:45;;;;;;;16.90;12.53;;;;;;;31.50;46.71;100695.78;2108436;84;30229;-69
2021/08/14 07:08:46;;;;;;;14.70;13.10;;;;;;;31.73;46.59;100691.84;2108623;84;27639;-69
2021/08/14 07:11:47;;;;;;;13.65;12.28;;;;;;;31.95;45.59;100685.63;2107787;83;29445;-69
2021/08/14 07:14:49;;;;;;;15.30;13.70;;;;;;;32.09;44.79;100687.08;2108724;84;31032;-70
2021/08/14 07:17:51;;;;;;;16.55;12.13;;;;;;;32.36;44.72;100687.98;2108717;84;33732;-71
2021/08/14 07:20:53;;;;;;;14.10;12.70;;;;;;;32.52;43.51;100690.02;2122377;82;29533;-70
2021/08/14 07:23:55;;;;;;;16.62;12.40;;;;;;;32.76;43.19;100688.56;2151706;82;27751;-69
2021/08/14 07:26:57;;;;;;;12.75;11.50;;;;;;;32.98;43.17;100696.66;2151734;82;28728;-68
2021/08/14 07:29:59;;;;;;;13.50;11.70;;;;;;;33.25;42.65;100704.97;2151809;82;31088;-67
2021/08/14 07:33:01;;;;;;;14.25;11.33;;;;;;;33.28;41.48;100703.98;2151663;82;33747;-69
2021/08/14 07:36:03;;;;;;;12.75;10.43;;;;;;;33.33;41.19;100700.55;2151818;82;29472;-68
2021/08/14 07:39:06;;;;;;;12.15;10.80;;;;;;;33.39;40.76;100704.41;2151766;82;27752;-67
2021/08/14 07:42:08;;;;;;;14.38;10.93;;;;;;;33.32;40.52;100709.44;2151839;82;32293;-68
2021/08/14 07:45:15;;;;;;;13.22;10.20;;;;;;;33.25;39.88;100714.13;2151572;82;31237;-67
2021/08/14 07:48:14;;;;;;;11.53;10.38;;;;;;;33.16;39.60;100710.73;2151100;82;32991;-68
2021/08/14 07:51:16;;;;;;;12.75;10.58;;;;;;;33.29;39.48;100723.75;2133690;82;30118;-68
2021/08/14 07:54:18;;;;;;;15.63;9.58;;;;;;;33.36;39.23;100716.81;2104531;84;27659;-68
2021/08/14 07:57:20;;;;;;;11.38;10.32;;;;;;;33.44;38.88;100715.73;2102181;83;28613;-68
2021/08/14 08:00:24;;;;;;;13.58;10.23;;;;;;;33.62;39.12;100716.41;2106402;84;31028;-68
2021/08/14 08:03:25;;;;;;;12.78;9.45;;;;;;;33.72;37.94;100718.72;2106672;84;32979;-60
2021/08/14 08:06:28;;;;;;;13.05;11.15;;;;;;;33.55;37.83;100713.66;2106906;84;30121;-60
2021/08/14 08:09:29;;;;;;;10.98;9.43;;;;;;;33.59;38.07;100714.93;2106980;84;27671;-60
2021/08/14 08:12:31;;;;;;;12.47;9.70;;;;;;;33.68;37.91;100711.37;2106978;84;29023;-60
2021/08/14 08:15:33;;;;;;;13.53;8.78;;;;;;;33.80;37.80;100710.16;2106777;84;32006;-61
2021/08/14 08:18:35;;;;;;;10.45;9.35;;;;;;;33.93;37.59;100699.52;2106770;84;33828;-61
2021/08/14 08:21:37;;;;;;;9.50;8.38;;;;;;;34.12;37.28;100707.45;2108342;82;30266;-60
2021/08/14 08:24:41;;;;;;;9.73;7.95;;;;;;;34.26;36.47;100708.75;2108773;83;27718;-60
2021/08/14 08:27:48;;;;;;;11.83;8.08;;;;;;;34.35;36.72;100707.39;2108526;84;29067;-61
2021/08/14 08:30:50;;;;;;;9.18;8.28;;;;;;;34.45;36.76;100705.02;2108580;84;31039;-61
2021/08/14 08:33:52;;;;;;;11.93;8.40;;;;;;;34.53;35.93;100713.07;2108336;84;33486;-61
2021/08/14 08:36:54;;;;;;;9.53;8.30;;;;;;;34.56;35.73;100710.92;2108304;83;30209;-60
2021/08/14 08:39:56;;;;;;;7.65;6.75;;;;;;;34.47;35.29;100702.86;2107263;84;27701;-60
2021/08/14 08:42:58;;;;;;;9.38;7.20;;;;;;;34.34;35.22;100711.25;2107130;84;29529;-61
2021/08/14 08:45:59;;;;;;;8.28;7.47;;;;;;;34.32;35.24;100705.08;2107750;84;31358;-60
2021/08/14 08:49:03;;;;;;;10.68;8.35;;;;;;;34.35;35.43;100705.48;2107619;84;33435;-61
2021/08/14 08:52:06;;;;;;;9.25;6.95;;;;;;;34.39;33.79;100710.91;2109027;82;30179;-61
2021/08/14 08:55:12;;;;;;;7.53;6.80;;;;;;;34.14;34.53;100701.13;2107699;84;27686;-61
2021/08/14 08:58:14;;;;;;;11.97;7.53;;;;;;;33.96;34.75;100698.23;2103963;84;29651;-61
2021/08/14 09:01:16;;;;;;;7.97;7.20;;;;;;;33.87;34.10;100703.17;2083138;84;31020;-61
2021/08/14 09:04:30;;;;;;;8.30;7.50;;;;;;;33.50;34.54;100700.11;2089022;84;33381;-61
2021/08/14 09:07:32;;;;;;;9.68;6.95;;;;;;;33.26;35.16;100702.51;2073280;84;30578;-61
2021/08/14 09:10:34;;;;;;;12.85;8.95;;;;;;;32.99;35.40;100710.34;2070948;85;28148;-61
2021/08/14 09:13:36;;;;;;;7.30;6.55;;;;;;;32.71;35.73;100709.98;2071103;85;29030;-59
2021/08/14 09:16:38;;;;;;;10.98;7.47;;;;;;;32.57;36.01;100709.66;2070450;85;32229;-60
2021/08/14 09:19:39;;;;;;;8.45;7.20;;;;;;;32.37;35.89;100708.27;2067311;85;34085;-61
2021/08/14 09:23:04;;;;;;;9.75;7.17;;;;;;;32.08;36.42;100702.00;2071500;84;29714;-61
2021/08/14 09:26:07;;;;;;;8.63;6.37;;;;;;;32.03;36.53;100698.44;2068676;85;27614;-61
2021/08/14 09:29:09;;;;;;;12.37;7.00;;;;;;;31.95;36.50;100695.33;2071131;85;29077;-60
2021/08/14 09:32:14;;;;;;;11.08;6.97;;;;;;;31.95;36.98;100693.94;2070671;84;30369;-61
2021/08/14 09:35:26;;;;;;;7.25;6.37;;;;;;;31.92;36.83;100693.52;2070928;85;33010;-61
2021/08/14 09:38:44;;;;;;;8.38;6.55;;;;;;;32.01;37.09;100690.89;2068425;85;29447;-61
2021/08/14 09:41:46;;;;;;;7.67;6.55;;;;;;;32.15;36.59;100697.85;2038338;87;27682;-58
2021/08/14 09:45:11;;;;;;;10.28;6.42;;;;;;;32.00;35.99;100693.34;2041230;85;29570;-61
2021/08/14 09:48:19;;;;;;;9.48;7.05;;;;;;;31.93;36.43;100700.25;2038222;85;32248;-63
2021/08/14 09:51:33;;;;;;;10.10;6.60;;;;;;;31.95;36.88;100690.33;2039557;85;33014;-61
2021/08/14 09:54:38;;;;;;;8.95;6.85;;;;;;;31.91;36.75;100684.36;1968370;90;30281;-61
2021/08/14 09:57:42;;;;;;;7.75;6.95;;;;;;;31.85;36.62;100682.95;2038471;87;28299;-61
2021/08/14 10:00:49;;;;;;;10.82;6.35;;;;;;;31.80;37.15;100693.25;2049798;85;29347;-62
2021/08/14 10:03:53;;;;;;;8.23;6.45;;;;;;;31.78;37.31;100685.67;2074604;85;31119;-61
2021/08/14 10:06:54;;;;;;;10.03;6.87;;;;;;;31.98;37.57;100685.77;2075084;85;33431;-62
2021/08/14 10:09:57;;;;;;;8.85;7.00;;;;;;;31.96;37.18;100685.95;2075067;85;30276;-61
2021/08/14 10:13:00;;;;;;;8.13;7.00;;;;;;;31.95;37.32;100681.47;2074373;84;27852;-61
2021/08/14 10:16:02;;;;;;;7.50;6.70;;;;;;;31.84;37.35;100684.85;2075023;85;28658;-61
2021/08/14 10:19:04;;;;;;;10.30;7.35;;;;;;;31.80;37.94;100685.81;2076332;84;31037;-62
2021/08/14 10:22:08;;;;;;;10.25;7.85;;;;;;;31.88;37.90;100682.52;2077085;84;34193;-62
2021/08/14 10:25:19;;;;;;;8.53;7.12;;;;;;;31.84;37.81;100693.72;2097597;83;30194;-61
2021/08/14 10:28:26;;;;;;;7.22;6.53;;;;;;;31.76;37.93;100686.44;2101362;82;27683;-62
2021/08/14 10:31:37;;;;;;;9.73;8.20;;;;;;;31.83;38.37;100681.76;2103233;83;29603;-61
2021/08/14 10:34:38;;;;;;;10.08;7.62;;;;;;;31.72;37.87;100685.98;2118448;83;31160;-61
2021/08/14 10:37:46;;;;;;;14.13;9.23;;;;;;;31.60;38.46;100685.70;2113079;83;34109;-61
2021/08/14 10:41:00;;;;;;;10.45;8.45;;;;;;;31.60;38.21;100681.55;2105858;83;29393;-62
2021/08/14 10:44:03;;;;;;;13.18;8.95;;;;;;;31.60;38.62;100676.53;2110074;83;27725;-62
2021/08/14 10:47:27;;;;;;;10.30;8.15;;;;;;;31.69;38.61;100672.50;2125305;83;43880;-61
2021/08/14 10:50:37;;;;;;;10.63;9.50;;;;;;;31.83;38.73;100659.59;2124653;82;32326;-62
2021/08/14 10:53:43;;;;;;;11.33;8.83;;;;;;;32.06;38.14;100662.00;2120534;83;33047;-64
2021/08/14 10:57:08;;;;;;;10.78;8.73;;;;;;;32.15;38.52;100664.59;2113836;82;29395;-63
2021/08/14 11:00:18;;;;;;;16.35;9.10;;;;;;;32.30;38.33;100661.64;2126910;82;27694;-62
2021/08/14 11:03:33;;;;;;;14.87;8.93;;;;;;;32.33;38.73;100659.31;2131802;83;29073;-73
2021/08/14 11:06:37;;;;;;;12.05;8.93;;;;;;;32.32;38.09;100658.99;2141930;83;31225;-74
2021/08/14 11:09:39;;;;;;;11.95;9.65;;;;;;;32.26;38.67;100657.05;2142028;83;33034;-64
2021/08/14 11:12:47;;;;;;;14.90;9.55;;;;;;;32.20;38.76;100649.02;2141929;83;29366;-67
2021/08/14 11:15:49;;;;;;;12.60;9.60;;;;;;;32.07;38.83;100645.69;2141928;83;27704;-68
2021/08/14 11:18:57;;;;;;;10.98;9.13;;;;;;;31.91;38.97;100637.25;2141833;83;28256;-67
2021/08/14 11:22:04;;;;;;;12.15;9.03;;;;;;;31.73;38.78;100636.98;2143353;82;31024;-61
2021/08/14 11:25:26;;;;;;;10.18;8.50;;;;;;;31.58;39.31;100640.74;2134036;82;33406;-62
2021/08/14 11:28:30;;;;;;;11.00;8.53;;;;;;;31.61;39.38;100632.53;2140583;82;30663;-61
2021/08/14 11:31:32;;;;;;;12.95;8.88;;;;;;;31.57;39.29;100633.49;2148563;82;27701;-62
2021/08/14 11:34:35;;;;;;;10.72;8.93;;;;;;;31.47;39.35;100637.16;2137834;82;30036;-62
2021/08/14 11:37:58;;;;;;;11.10;8.30;;;;;;;31.39;39.30;100627.11;2116913;83;32266;-61
2021/08/14 11:41:02;;;;;;;11.38;8.18;;;;;;;31.37;39.12;100627.34;2103970;84;33753;-61
2021/08/14 11:44:06;;;;;;;9.00;8.15;;;;;;;31.29;39.41;100624.73;2105938;84;29705;-62
2021/08/14 11:47:10;;;;;;;10.60;7.45;;;;;;;31.22;39.96;100614.17;2106008;83;27638;-61
2021/08/14 11:50:13;;;;;;;10.53;8.38;;;;;;;31.10;40.11;100615.23;2137317;82;28642;-61
2021/08/14 11:53:27;;;;;;;11.78;8.35;;;;;;;30.93;39.93;100609.20;2106035;84;31882;-60
2021/08/14 11:56:29;;;;;;;12.98;8.93;;;;;;;30.79;39.93;100605.48;2105487;84;33830;-60
2021/08/14 11:59:33;;;;;;;10.03;7.22;;;;;;;30.64;40.48;100599.20;2105651;84;30207;-60
2021/08/14 12:02:35;;;;;;;12.80;10.20;;;;;;;30.47;40.53;100607.23;2126185;82;27668;-60
2021/08/14 12:05:43;;;;;;;13.10;8.58;;;;;;;30.34;40.47;100593.84;2108423;84;29962;-60
2021/08/14 12:08:46;;;;;;;11.60;8.73;;;;;;;30.14;40.54;100592.59;2116678;82;31021;-61
2021/08/14 12:11:54;;;;;;;9.50;8.45;;;;;;;29.97;41.01;100589.27;2094886;83;33836;-61
2021/08/14 12:14:57;;;;;;;12.18;9.00;;;;;;;29.82;41.22;100577.39;2121559;82;30234;-61
2021/08/14 12:17:59;;;;;;;9.23;8.33;;;;;;;29.71;41.48;100574.08;2128952;83;27647;-61
2021/08/14 12:21:03;;;;;;;11.15;8.48;;;;;;;29.53;41.39;100577.30;2116486;83;29885;-61
2021/08/14 12:24:07;;;;;;;11.08;8.15;;;;;;;29.44;41.94;100581.73;2130821;83;32262;-61
2021/08/14 12:27:32;;;;;;;9.18;8.28;;;;;;;29.35;42.25;100579.61;2122053;83;33849;-61
2021/08/14 12:30:37;;;;;;;;;;;;;;;29.30;42.43;100574.66;2128455;83;29362;-62
2021/08/14 12:33:47;;;;;;;11.30;8.95;;;;;;;29.21;42.48;100567.52;2144245;83;27707;-61
2021/08/14 12:37:11;;;;;;;12.85;7.92;;;;;;;29.10;42.75;100565.59;2141978;83;28667;-62
2021/08/14 12:40:16;;;;;;;9.90;8.90;;;;;;;29.01;43.00;100566.75;2115674;82;31061;-62
2021/08/14 12:43:20;;;;;;;9.48;8.35;;;;;;;28.97;43.40;100564.03;2132611;81;33794;-62
2021/08/14 12:46:26;;;;;;;11.80;8.80;;;;;;;28.95;43.46;100569.76;2144987;83;30285;-61
2021/08/14 12:49:28;;;;;;;9.15;8.05;;;;;;;28.92;43.35;100568.75;2145518;83;27606;-62
2021/08/14 12:52:30;;;;;;;14.55;13.15;;;;;;;28.90;43.51;100558.44;2136552;83;29698;-61
2021/08/14 12:55:50;;;;;;;10.80;9.15;;;;;;;28.88;43.87;100557.77;2113652;83;30992;-62
2021/08/14 12:58:52;;;;;;;11.28;9.20;;;;;;;28.89;43.98;100553.96;2111568;83;33938;-62
2021/08/14 13:01:58;;;;;;;9.63;8.63;;;;;;;28.86;43.87;100552.12;2130876;83;29183;-62
2021/08/14 13:05:01;;;;;;;10.82;9.33;;;;;;;28.83;44.00;100543.68;2129222;83;28211;-60
2021/08/14 13:08:06;;;;;;;11.43;8.50;;;;;;;28.71;44.05;100538.28;2121567;82;28745;-61
2021/08/14 13:11:10;;;;;;;16.23;10.63;;;;;;;28.62;44.13;100535.64;2125463;82;32180;-63
2021/08/14 13:14:11;;;;;;;11.97;10.15;;;;;;;28.62;44.31;100534.77;2099515;83;32962;-62
2021/08/14 13:17:13;;;;;;;11.15;10.05;;;;;;;28.60;44.55;100525.32;2132340;83;30443;-63
2021/08/14 13:20:17;;;;;;;11.65;10.38;;;;;;;28.60;44.47;100525.32;2143051;83;27770;-75
2021/08/14 13:23:19;;;;;;;;;;;;;;;28.60;44.68;100517.05;2115176;82;28835;-74
2021/08/14 13:26:20;;;;;;;12.37;10.45;;;;;;;28.67;44.38;100522.66;2114068;82;31803;-63
2021/08/14 13:29:22;;;;;;;17.17;10.53;;;;;;;28.64;44.52;100521.12;2128002;82;33004;-62
2021/08/14 13:32:26;;;;;;;15.90;9.83;;;;;;;28.63;44.51;100519.94;2125971;82;29772;-62
2021/08/14 13:35:28;;;;;;;13.87;10.63;;;;;;;28.63;44.52;100518.56;2133179;82;28413;-73
2021/08/14 13:38:30;;;;;;;12.35;9.05;;;;;;;28.60;44.28;100506.53;2138496;83;30823;-61
2021/08/14 13:41:33;;;;;;;12.13;10.65;;;;;;;28.59;44.55;100511.20;2124612;82;31028;-60
2021/08/14 13:44:35;;;;;;;18.07;10.40;;;;;;;28.57;44.57;100509.16;2073563;83;34134;-60
2021/08/14 13:47:37;;;;;;;14.25;8.83;;;;;;;28.54;44.70;100501.27;2112067;82;29342;-60
2021/08/14 13:50:40;;;;;;;11.85;9.25;;;;;;;28.49;44.94;100504.59;2135409;83;27758;-61
2021/08/14 13:53:41;;;;;;;15.98;10.28;;;;;;;28.48;45.00;100504.77;2123426;82;29564;-60
2021/08/14 13:56:44;;;;;;;15.72;10.43;;;;;;;28.48;45.04;100492.36;2132641;81;32018;-61
2021/08/14 13:59:46;;;;;;;9.78;8.33;;;;;;;28.45;44.76;100493.61;2128115;82;33348;-60
2021/08/14 14:02:47;;;;;;;12.33;9.85;;;;;;;28.42;45.09;100487.63;2099831;83;29390;-60